Time;durP1;ratioP1;P1;durP2;ratioP2;P2;SDS_P1;SDS_P2;PMS_P1;PMS_P2;Temp;Humidity;BMP_temperature;BMP_pressure;BME280_temperature;BME280_humidity;BME280_pressure;Samples;Min_cycle;Max_cycle;Signal;HPM_P1;HPM_P2
2022/11/25 00:01:48;;;;;;;;;;;;;;;3.39;100.00;100383.88;5575219;31;33029;-72
2022/11/25 00:05:07;;;;;;;;;;;;;;;3.39;100.00;100383.88;5576834;31;35160;-73
2022/11/25 00:08:15;;;;;;;;;;;;;;;3.43;100.00;100387.13;5589146;31;34582;-73
2022/11/25 00:11:24;;;;;;;;;;;;;;;3.35;100.00;100384.25;5576210;31;34480;-72
2022/11/25 00:14:30;;;;;;;;;;;;;;;3.45;100.00;100395.69;5589107;31;35119;-73
2022/11/25 00:17:38;;;;;;;;;;;;;;;3.54;100.00;100397.56;5588876;31;35045;-72
2022/11/25 00:20:44;;;;;;;;;;;;;;;3.56;100.00;100403.53;5589069;31;34565;-72
2022/11/25 00:23:58;;;;;;;;;;;;;;;3.41;100.00;100396.87;5589027;31;34441;-72
2022/11/25 00:27:03;;;;;;;;;;;;;;;3.34;100.00;100387.84;5588940;31;34548;-72
2022/11/25 00:30:15;;;;;;;;;;;;;;;3.27;100.00;100394.53;5589165;31;35133;-72
2022/11/25 00:33:21;;;;;;;;;;;;;;;3.29;100.00;100403.91;5588988;31;35117;-72
2022/11/25 00:36:31;;;;;;;;;;;;;;;3.31;100.00;100415.12;5574707;31;34406;-72
2022/11/25 00:39:37;;;;;;;;;;;;;;;3.27;100.00;100405.84;5562019;31;35569;-72
2022/11/25 00:46:12;;;;;;;;;;;;;;;3.18;100.00;100418.84;5588506;31;34419;-73
2022/11/25 00:49:18;;;;;;;;;;;;;;;3.17;100.00;100422.41;5574568;31;34584;-72
2022/11/25 00:52:27;;;;;;;;;;;;;;;3.22;100.00;100421.09;5588490;31;34501;-73
2022/11/25 00:56:11;;;;;;;;;;;;;;;3.23;100.00;100424.56;5575150;31;35737;-71
2022/11/25 00:59:00;;;;;;;;;;;;;;;3.20;100.00;100427.41;5590920;31;35123;-72
2022/11/25 01:02:09;;;;;;;;;;;;;;;3.16;100.00;100425.97;5590991;31;34933;-73
2022/11/25 01:05:15;;;;;;;;;;;;;;;3.12;100.00;100429.78;5591152;31;34526;-72
2022/11/25 01:08:22;;;;;;;;;;;;;;;3.02;100.00;100432.28;5591085;31;34934;-71
2022/11/25 01:11:28;;;;;;;;;;;;;;;2.94;100.00;100434.69;5591021;31;35201;-71
2022/11/25 01:14:35;;;;;;;;;;;;;;;2.85;100.00;100436.22;5577013;31;35263;-72
2022/11/25 01:17:42;;;;;;;;;;;;;;;2.74;100.00;100423.09;5590771;31;34928;-72
2022/11/25 01:20:52;;;;;;;;;;;;;;;2.72;100.00;100434.63;5590858;31;34394;-72
2022/11/25 01:24:02;;;;;;;;;;;;;;;2.66;100.00;100435.12;5590935;31;34612;-72
2022/11/25 01:27:09;;;;;;;;;;;;;;;2.54;100.00;100440.31;5577522;31;35189;-72
2022/11/25 01:30:18;;;;;;;;;;;;;;;2.55;100.00;100441.16;5590889;31;34559;-72
2022/11/25 01:33:26;;;;;;;;;;;;;;;2.38;100.00;100449.41;5577690;31;34494;-71
2022/11/25 01:36:33;;;;;;;;;;;;;;;2.51;100.00;100442.34;5564516;31;35158;-72
2022/11/25 01:39:40;;;;;;;;;;;;;;;2.62;100.00;100448.41;5590677;31;34474;-71
2022/11/25 01:42:48;;;;;;;;;;;;;;;2.67;100.00;100458.56;5576844;31;33682;-73
2022/11/25 01:46:17;;;;;;;;;;;;;;;2.62;100.00;100451.03;5564333;31;32952;-73
2022/11/25 01:49:32;;;;;;;;;;;;;;;2.57;100.00;100447.94;5590771;31;33859;-74
2022/11/25 01:52:41;;;;;;;;;;;;;;;2.70;100.00;100452.25;5577169;31;35060;-72
2022/11/25 01:55:50;;;;;;;;;;;;;;;2.87;100.00;100451.81;5590664;31;34640;-72
2022/11/25 01:58:58;;;;;;;;;;;;;;;2.92;100.00;100455.75;5577186;31;35207;-72
2022/11/25 02:02:06;;;;;;;;;;;;;;;2.86;100.00;100447.50;5590733;31;34556;-72
2022/11/25 02:05:16;;;;;;;;;;;;;;;2.79;100.00;100459.41;5590497;31;35033;-73
2022/11/25 02:08:25;;;;;;;;;;;;;;;2.90;100.00;100448.97;5590050;31;35235;-72
2022/11/25 02:11:34;;;;;;;;;;;;;;;2.97;100.00;100453.59;5590524;31;35014;-72
2022/11/25 02:14:41;;;;;;;;;;;;;;;3.00;100.00;100460.41;5590457;31;34323;-72
2022/11/25 02:17:50;;;;;;;;;;;;;;;2.98;100.00;100455.28;5551272;32;34474;-72
2022/11/25 02:20:58;;;;;;;;;;;;;;;2.95;100.00;100463.34;5551269;32;34895;-72
2022/11/25 02:24:11;;;;;;;;;;;;;;;3.10;100.00;100455.31;5550499;32;35952;-73
2022/11/25 02:27:20;;;;;;;;;;;;;;;3.03;100.00;100450.53;5551267;32;35103;-72
2022/11/25 02:30:28;;;;;;;;;;;;;;;2.94;100.00;100459.09;5551199;32;35147;-72
2022/11/25 02:33:39;;;;;;;;;;;;;;;2.94;100.00;100456.47;5551191;32;34927;-72
2022/11/25 02:36:47;;;;;;;;;;;;;;;3.02;100.00;100458.50;5550441;32;34999;-73
2022/11/25 02:39:55;;;;;;;;;;;;;;;3.09;100.00;100454.47;5549961;32;33012;-73
2022/11/25 02:43:01;;;;;;;;;;;;;;;3.18;100.00;100455.53;5551118;32;34422;-73
2022/11/25 02:46:08;;;;;;;;;;;;;;;3.16;100.00;100458.25;5550921;32;34420;-73
2022/11/25 02:49:17;;;;;;;;;;;;;;;3.09;100.00;100464.94;5550767;32;34958;-73
2022/11/25 02:52:28;;;;;;;;;;;;;;;3.00;100.00;100469.09;5550711;32;34690;-74
2022/11/25 02:55:36;;;;;;;;;;;;;;;3.00;100.00;100465.66;5550720;32;35010;-72
2022/11/25 02:58:44;;;;;;;;;;;;;;;3.06;100.00;100449.44;5550654;32;35080;-73
2022/11/25 03:01:55;;;;;;;;;;;;;;;3.07;100.00;100461.59;5550741;32;34683;-73
2022/11/25 03:05:04;;;;;;;;;;;;;;;3.04;100.00;100449.59;5550645;32;35186;-73
2022/11/25 03:08:11;;;;;;;;;;;;;;;3.09;100.00;100457.09;5550586;32;34429;-72
2022/11/25 03:11:20;;;;;;;;;;;;;;;3.14;100.00;100470.69;5550971;32;34888;-74
2022/11/25 03:14:28;;;;;;;;;;;;;;;3.25;100.00;100465.41;5550838;32;35146;-72
2022/11/25 03:17:38;;;;;;;;;;;;;;;3.23;100.00;100471.75;5587918;31;34563;-74
2022/11/25 03:20:51;;;;;;;;;;;;;;;3.16;100.00;100481.03;5589834;31;35027;-73
2022/11/25 03:24:01;;;;;;;;;;;;;;;3.15;100.00;100492.47;5590349;31;35080;-74
2022/11/25 03:27:08;;;;;;;;;;;;;;;3.08;100.00;100502.59;5589857;31;34580;-73
2022/11/25 03:30:19;;;;;;;;;;;;;;;3.01;100.00;100504.00;5589703;31;34873;-74
2022/11/25 03:33:30;;;;;;;;;;;;;;;2.96;100.00;100506.97;5589696;31;35035;-72
2022/11/25 03:36:39;;;;;;;;;;;;;;;2.84;100.00;100522.78;5589674;31;34582;-72
2022/11/25 03:39:47;;;;;;;;;;;;;;;2.77;100.00;100522.41;5576409;31;35151;-73
2022/11/25 03:42:55;;;;;;;;;;;;;;;2.63;100.00;100522.59;5589662;31;34889;-72
2022/11/25 03:46:00;;;;;;;;;;;;;;;2.52;100.00;100522.53;5589612;31;34551;-72
2022/11/25 03:49:11;;;;;;;;;;;;;;;2.67;100.00;100520.56;5589557;31;35195;-72
2022/11/25 03:52:18;;;;;;;;;;;;;;;2.57;100.00;100517.81;5589483;31;34428;-72
2022/11/25 03:55:29;;;;;;;;;;;;;;;2.35;100.00;100526.41;5589562;31;34525;-71
2022/11/25 03:58:34;;;;;;;;;;;;;;;2.35;100.00;100533.44;5589422;31;34585;-72
2022/11/25 04:01:42;;;;;;;;;;;;;;;2.32;100.00;100533.66;5589217;31;34438;-72
2022/11/25 04:04:49;;;;;;;;;;;;;;;2.38;100.00;100538.44;5589382;31;34420;-73
2022/11/25 04:07:58;;;;;;;;;;;;;;;2.38;100.00;100530.56;5575783;31;34660;-72
2022/11/25 04:11:05;;;;;;;;;;;;;;;2.50;100.00;100535.78;5588965;31;34866;-72
2022/11/25 04:14:13;;;;;;;;;;;;;;;2.67;100.00;100537.12;5588968;31;34614;-72
2022/11/25 04:17:23;;;;;;;;;;;;;;;2.78;100.00;100542.41;5588824;31;34523;-73
2022/11/25 04:20:28;;;;;;;;;;;;;;;2.78;100.00;100542.41;5588858;31;34944;-72
2022/11/25 04:23:33;;;;;;;;;;;;;;;2.69;100.00;100547.50;5562370;31;33617;-72
2022/11/25 04:26:40;;;;;;;;;;;;;;;2.57;100.00;100551.84;5575794;31;34455;-72
2022/11/25 04:29:49;;;;;;;;;;;;;;;2.50;100.00;100556.72;5575605;31;33794;-72
2022/11/25 04:32:58;;;;;;;;;;;;;;;2.52;100.00;100556.59;5591451;31;35014;-72
2022/11/25 04:36:06;;;;;;;;;;;;;;;2.67;100.00;100570.34;5591309;31;34601;-73
2022/11/25 04:39:16;;;;;;;;;;;;;;;2.78;100.00;100570.41;5591197;31;34993;-73
2022/11/25 04:42:31;;;;;;;;;;;;;;;2.79;100.00;100567.66;5591564;31;35084;-72
2022/11/25 04:45:37;;;;;;;;;;;;;;;2.74;100.00;100574.19;5591227;31;34462;-74
2022/11/25 04:49:05;;;;;;;;;;;;;;;2.54;100.00;100575.66;5591040;31;34461;-74
2022/11/25 04:52:13;;;;;;;;;;;;;;;2.29;100.00;100579.22;5591084;31;35182;-74
2022/11/25 04:55:21;;;;;;;;;;;;;;;2.19;100.00;100580.81;5591147;31;34532;-74
2022/11/25 05:01:56;;;;;;;;;;;;;;;2.34;100.00;100568.41;5591402;31;35286;-74
2022/11/25 05:05:02;;;;;;;;;;;;;;;2.27;100.00;100581.12;5577558;31;34506;-74
2022/11/25 05:08:08;;;;;;;;;;;;;;;2.16;100.00;100594.13;5591021;31;35196;-74
2022/11/25 05:11:15;;;;;;;;;;;;;;;2.16;100.00;100604.59;5590904;31;35212;-74
2022/11/25 05:14:22;;;;;;;;;;;;;;;2.39;100.00;100605.56;5591031;31;34488;-74
2022/11/25 05:17:30;;;;;;;;;;;;;;;2.24;100.00;100615.34;5590872;31;34465;-74
2022/11/25 05:20:48;;;;;;;;;;;;;;;2.01;100.00;100616.13;5590787;31;34534;-74
2022/11/25 05:23:55;;;;;;;;;;;;;;;1.85;100.00;100621.59;5590751;31;35146;-74
2022/11/25 05:27:01;;;;;;;;;;;;;;;1.79;100.00;100622.03;5591040;31;34291;-74
2022/11/25 05:30:07;;;;;;;;;;;;;;;1.70;100.00;100627.88;5590785;31;34489;-74
2022/11/25 05:33:16;;;;;;;;;;;;;;;1.65;100.00;100627.34;5590609;31;34634;-74
2022/11/25 05:36:23;;;;;;;;;;;;;;;1.51;100.00;100643.16;5590767;31;34449;-75
2022/11/25 05:39:31;;;;;;;;;;;;;;;1.35;100.00;100645.12;5577356;31;35191;-74
2022/11/25 05:42:37;;;;;;;;;;;;;;;1.20;100.00;100645.22;5590142;31;34369;-74
2022/11/25 05:45:45;;;;;;;;;;;;;;;1.12;100.00;100649.25;5590923;31;34397;-74
2022/11/25 05:48:54;;;;;;;;;;;;;;;1.10;100.00;100656.38;5590680;31;34522;-74
2022/11/25 05:52:00;;;;;;;;;;;;;;;1.02;100.00;100654.25;5590503;31;35202;-74
2022/11/25 05:55:06;;;;;;;;;;;;;;;0.93;100.00;100662.69;5590517;31;34455;-75
2022/11/25 05:58:11;;;;;;;;;;;;;;;0.94;100.00;100673.97;5590576;31;35163;-74
2022/11/25 06:01:16;;;;;;;;;;;;;;;0.88;100.00;100672.59;5590408;31;34547;-74
2022/11/25 06:04:20;;;;;;;;;;;;;;;0.83;100.00;100672.06;5590413;31;34527;-75
2022/11/25 06:07:23;;;;;;;;;;;;;;;0.75;100.00;100680.38;5590433;31;35194;-74
2022/11/25 06:10:28;;;;;;;;;;;;;;;0.72;100.00;100688.44;5590508;31;34675;-73
2022/11/25 06:13:31;;;;;;;;;;;;;;;0.75;100.00;100692.59;5576778;31;34873;-75
2022/11/25 06:16:35;;;;;;;;;;;;;;;0.72;100.00;100698.03;5576358;31;34550;-73
2022/11/25 06:19:38;;;;;;;;;;;;;;;0.70;100.00;100705.13;5576347;31;34609;-73
2022/11/25 06:22:43;;;;;;;;;;;;;;;0.70;100.00;100707.72;5563721;31;33484;-74
2022/11/25 06:25:46;;;;;;;;;;;;;;;0.71;100.00;100709.41;5590195;31;35124;-74
2022/11/25 06:28:53;;;;;;;;;;;;;;;0.76;100.00;100715.19;5590037;31;34526;-74
2022/11/25 06:31:58;;;;;;;;;;;;;;;0.74;100.00;100720.50;5590001;31;35024;-74
2022/11/25 06:35:02;;;;;;;;;;;;;;;0.75;100.00;100726.56;5576531;31;34390;-75
2022/11/25 06:38:07;;;;;;;;;;;;;;;0.79;100.00;100717.59;5590237;31;35145;-74
2022/11/25 06:41:10;;;;;;;;;;;;;;;0.78;100.00;100718.50;5590166;31;35415;-74
2022/11/25 06:44:15;;;;;;;;;;;;;;;0.81;100.00;100720.94;5575929;31;34269;-75
2022/11/25 06:47:21;;;;;;;;;;;;;;;0.94;100.00;100721.84;5589983;31;34970;-74
2022/11/25 06:50:24;;;;;;;;;;;;;;;1.02;100.00;100722.16;5575651;31;34325;-74
2022/11/25 06:53:29;;;;;;;;;;;;;;;1.04;100.00;100729.91;5589870;31;34695;-75
2022/11/25 06:56:33;;;;;;;;;;;;;;;1.06;100.00;100734.12;5589757;31;35176;-77
2022/11/25 06:59:36;;;;;;;;;;;;;;;1.10;100.00;100737.38;5563175;31;34041;-74
2022/11/25 07:02:39;;;;;;;;;;;;;;;1.15;100.00;100738.75;5589818;31;35035;-74
2022/11/25 07:05:50;;;;;;;;;;;;;;;1.20;100.00;100748.91;5589715;31;35163;-74
2022/11/25 07:08:52;;;;;;;;;;;;;;;1.23;100.00;100746.94;5589663;31;34490;-74
2022/11/25 07:11:56;;;;;;;;;;;;;;;1.28;100.00;100749.25;5575982;31;34821;-75
2022/11/25 07:14:59;;;;;;;;;;;;;;;1.38;100.00;100749.47;5589464;31;34512;-75
2022/11/25 07:18:03;;;;;;;;;;;;;;;1.47;100.00;100756.72;5589765;31;34503;-75
2022/11/25 07:21:16;;;;;;;;;;;;;;;1.51;100.00;100766.88;5589560;31;35018;-75
2022/11/25 07:24:20;;;;;;;;;;;;;;;1.62;100.00;100766.16;5589399;31;34510;-74
2022/11/25 07:27:23;;;;;;;;;;;;;;;1.67;100.00;100761.47;5574997;31;33258;-75
2022/11/25 07:30:26;;;;;;;;;;;;;;;1.71;100.00;100762.94;5589298;31;35197;-73
2022/11/25 07:33:51;;;;;;;;;;;;;;;1.80;100.00;100766.72;5589399;31;34511;-75
2022/11/25 07:36:54;;;;;;;;;;;;;;;1.87;100.00;100768.00;5575667;31;35080;-75
2022/11/25 07:39:59;;;;;;;;;;;;;;;1.97;100.00;100766.44;5589406;31;34710;-75
2022/11/25 07:43:03;;;;;;;;;;;;;;;2.09;100.00;100770.81;5589587;31;34548;-75
2022/11/25 07:46:09;;;;;;;;;;;;;;;2.23;100.00;100773.34;5562625;31;34464;-75
2022/11/25 07:49:14;;;;;;;;;;;;;;;2.38;100.00;100776.69;5589590;31;34508;-75
2022/11/25 07:52:19;;;;;;;;;;;;;;;2.62;100.00;100772.34;5589055;31;35094;-75
2022/11/25 07:55:23;;;;;;;;;;;;;;;2.67;100.00;100770.25;5589153;31;34875;-74
2022/11/25 07:58:27;;;;;;;;;;;;;;;2.73;100.00;100764.59;5589178;31;34568;-74
2022/11/25 08:01:30;;;;;;;;;;;;;;;2.84;100.00;100763.84;5589217;31;35090;-74
2022/11/25 08:04:35;;;;;;;;;;;;;;;2.99;100.00;100762.75;5588438;31;34599;-76
2022/11/25 08:07:38;;;;;;;;;;;;;;;3.08;100.00;100769.09;5589005;31;34622;-75
2022/11/25 08:10:43;;;;;;;;;;;;;;;3.16;100.00;100778.06;5588841;31;35110;-75
2022/11/25 08:13:46;;;;;;;;;;;;;;;3.26;100.00;100783.50;5575202;31;35256;-75
2022/11/25 08:16:51;;;;;;;;;;;;;;;3.46;100.00;100775.84;5588848;31;34492;-75
2022/11/25 08:19:55;;;;;;;;;;;;;;;3.93;100.00;100787.22;5575783;31;34869;-76
2022/11/25 08:22:58;;;;;;;;;;;;;;;3.95;100.00;100790.56;5588946;31;35101;-75
2022/11/25 08:26:05;;;;;;;;;;;;;;;4.05;100.00;100788.09;5589064;31;35223;-75
2022/11/25 08:29:11;;;;;;;;;;;;;;;4.33;100.00;100793.75;5588342;31;34458;-75
2022/11/25 08:32:14;;;;;;;;;;;;;;;4.44;100.00;100795.56;5588926;31;35050;-76
2022/11/25 08:35:19;;;;;;;;;;;;;;;4.50;100.00;100794.25;5588706;31;34459;-75
2022/11/25 08:38:22;;;;;;;;;;;;;;;4.61;100.00;100800.31;5588696;31;34863;-75
2022/11/25 08:41:30;;;;;;;;;;;;;;;4.59;100.00;100793.53;5574727;31;34974;-75
2022/11/25 08:44:33;;;;;;;;;;;;;;;4.63;100.00;100798.41;5574776;31;34553;-75
2022/11/25 08:47:38;;;;;;;;;;;;;;;4.79;100.00;100796.25;5588475;31;34451;-75
2022/11/25 08:50:46;;;;;;;;;;;;;;;4.88;100.00;100805.22;5574586;31;34792;-75
2022/11/25 08:53:51;;;;;;;;;;;;;;;5.08;100.00;100801.81;5574916;31;34369;-74
2022/11/25 08:56:55;;;;;;;;;;;;;;;5.04;100.00;100796.94;5561493;31;33369;-75
2022/11/25 08:59:59;;;;;;;;;;;;;;;5.09;100.00;100792.16;5588009;31;34435;-75
2022/11/25 09:03:02;;;;;;;;;;;;;;;5.35;100.00;100793.53;5587972;31;34534;-75
2022/11/25 09:06:07;;;;;;;;;;;;;;;5.36;100.00;100795.22;5588344;31;34835;-76
2022/11/25 09:09:11;;;;;;;;;;;;;;;5.40;100.00;100796.63;5561359;31;34999;-73
2022/11/25 09:12:14;;;;;;;;;;;;;;;5.30;100.00;100790.44;5588375;31;34950;-73
2022/11/25 09:15:18;;;;;;;;;;;;;;;5.39;100.00;100796.75;5587855;31;35185;-74
2022/11/25 09:18:25;;;;;;;;;;;;;;;5.43;100.00;100796.37;5576527;31;34154;-73
2022/11/25 09:21:28;;;;;;;;;;;;;;;5.54;100.00;100798.97;5590531;31;34558;-72
2022/11/25 09:24:33;;;;;;;;;;;;;;;5.55;100.00;100794.53;5576460;31;34583;-73
2022/11/25 09:27:37;;;;;;;;;;;;;;;5.53;100.00;100799.06;5591035;31;34616;-72
2022/11/25 09:30:40;;;;;;;;;;;;;;;5.64;100.00;100794.62;5590497;31;34629;-72
2022/11/25 09:33:44;;;;;;;;;;;;;;;5.63;100.00;100790.31;5576837;31;34372;-72
2022/11/25 09:36:47;;;;;;;;;;;;;;;5.81;100.00;100795.84;5590440;31;35088;-72
2022/11/25 09:39:54;;;;;;;;;;;;;;;5.89;100.00;100800.53;5590702;31;35183;-71
2022/11/25 09:46:40;;;;;;;;;;;;;;;6.36;100.00;100784.19;5590531;31;35127;-72
2022/11/25 09:49:47;;;;;;;;;;;;;;;6.43;100.00;100780.06;5590556;31;35092;-72
2022/11/25 09:53:03;;;;;;;;;;;;;;;6.33;100.00;100791.53;5590331;31;35294;-72
2022/11/25 09:56:17;;;;;;;;;;;;;;;6.26;100.00;100785.09;5576376;31;32988;-71
2022/11/25 09:59:24;;;;;;;;;;;;;;;6.34;100.00;100778.19;5576387;31;32947;-71
2022/11/25 10:02:40;;;;;;;;;;;;;;;6.53;100.00;100780.13;5590200;31;34461;-72
2022/11/25 10:05:46;;;;;;;;;;;;;;;6.58;100.00;100777.09;5563462;31;35862;-71
2022/11/25 10:08:51;;;;;;;;;;;;;;;6.55;100.00;100781.62;5590202;31;34554;-72
2022/11/25 10:11:54;;;;;;;;;;;;;;;6.69;100.00;100780.44;5575838;31;34743;-71
2022/11/25 10:15:02;;;;;;;;;;;;;;;6.77;100.00;100774.53;5590127;31;35087;-72
2022/11/25 10:18:12;;;;;;;;;;;;;;;6.91;100.00;100779.41;5590158;31;34733;-72
2022/11/25 10:21:16;;;;;;;;;;;;;;;6.78;100.00;100778.78;5590473;31;34553;-72
2022/11/25 10:24:20;;;;;;;;;;;;;;;6.74;100.00;100780.03;5590136;31;35299;-72
2022/11/25 10:27:26;;;;;;;;;;;;;;;6.81;100.00;100776.75;5589851;31;35470;-72
2022/11/25 10:30:31;;;;;;;;;;;;;;;6.84;100.00;100773.84;5589976;31;35201;-73
2022/11/25 10:33:38;;;;;;;;;;;;;;;6.93;100.00;100773.03;5576211;31;34516;-72
2022/11/25 10:36:43;;;;;;;;;;;;;;;7.12;100.00;100774.03;5589993;31;34441;-73
2022/11/25 10:39:46;;;;;;;;;;;;;;;7.43;100.00;100770.34;5589908;31;34623;-73
2022/11/25 10:42:50;;;;;;;;;;;;;;;7.64;100.00;100773.69;5575704;31;35358;-73
2022/11/25 10:46:07;;;;;;;;;;;;;;;7.71;100.00;100766.03;5590958;31;34425;-74
2022/11/25 10:49:22;;;;;;;;;;;;;;;7.72;100.00;100780.91;5563320;31;33147;-73
2022/11/25 10:52:28;;;;;;;;;;;;;;;7.73;100.00;100778.12;5590807;31;34509;-73
2022/11/25 10:55:32;;;;;;;;;;;;;;;7.84;100.00;100779.81;5589724;31;34409;-71
2022/11/25 10:58:39;;;;;;;;;;;;;;;7.91;100.00;100780.06;5575794;31;34774;-71
2022/11/25 11:01:42;;;;;;;;;;;;;;;7.91;100.00;100777.41;5589600;31;34508;-72
2022/11/25 11:05:01;;;;;;;;;;;;;;;8.03;100.00;100778.94;5576313;31;34617;-72
2022/11/25 11:08:06;;;;;;;;;;;;;;;8.07;100.00;100786.44;5589704;31;34970;-72
2022/11/25 11:11:13;;;;;;;;;;;;;;;8.17;100.00;100783.78;5576434;31;35005;-73
2022/11/25 11:14:20;;;;;;;;;;;;;;;8.32;100.00;100784.19;5575887;31;35454;-73
2022/11/25 11:17:32;;;;;;;;;;;;;;;8.45;100.00;100787.34;5575824;31;34939;-73
2022/11/25 11:20:48;;;;;;;;;;;;;;;8.47;100.00;100788.84;5589964;31;35230;-73
2022/11/25 11:23:52;;;;;;;;;;;;;;;8.65;100.00;100795.06;5589476;31;35180;-72
2022/11/25 11:27:03;;;;;;;;;;;;;;;8.77;100.00;100797.50;5575774;31;34578;-73
2022/11/25 11:30:07;;;;;;;;;;;;;;;8.86;98.05;100799.31;5562713;31;34923;-73
2022/11/25 11:33:35;;;;;;;;;;;;;;;8.90;96.91;100796.22;5589414;31;34544;-72
2022/11/25 11:36:44;;;;;;;;;;;;;;;8.89;96.71;100794.53;5567734;31;34527;-72
2022/11/25 11:40:06;;;;;;;;;;;;;;;8.84;98.42;100785.38;5588299;31;34497;-72
2022/11/25 11:43:29;;;;;;;;;;;;;;;8.89;96.79;100791.91;5575467;31;34134;-73
2022/11/25 11:46:51;;;;;;;;;;;;;;;8.82;96.99;100787.31;5575075;31;34728;-73
2022/11/25 11:49:54;;;;;;;;;;;;;;;8.68;97.51;100791.28;5589607;31;35199;-72
2022/11/25 11:53:17;;;;;;;;;;;;;;;8.88;96.46;100790.22;5575299;31;35321;-72
2022/11/25 11:56:28;;;;;;;;;;;;;;;9.17;94.82;100792.72;5574926;31;34788;-71
2022/11/25 11:59:58;;;;;;;;;;;;;;;9.92;90.15;100794.91;5575344;31;35935;-72
2022/11/25 12:03:09;;;;;;;;;;;;;;;10.60;83.42;100792.41;5575287;31;34316;-73
2022/11/25 12:06:13;;;;;;;;;;;;;;;11.13;83.22;100788.69;5588994;31;34518;-73
2022/11/25 12:09:19;;;;;;;;;;;;;;;11.25;81.51;100787.38;5575178;31;33776;-71
2022/11/25 12:12:28;;;;;;;;;;;;;;;10.90;81.23;100783.94;5575001;31;33358;-74
2022/11/25 12:16:07;;;;;;;;;;;;;;;10.97;80.43;100789.47;5562822;31;823932;-73
2022/11/25 12:19:13;;;;;;;;;;;;;;;10.90;80.84;100789.25;5499426;31;34988;-72
2022/11/25 12:22:33;;;;;;;;;;;;;;;10.72;82.30;100795.66;5575042;31;34394;-72
2022/11/25 12:25:39;;;;;;;;;;;;;;;11.07;78.61;100787.50;5588903;31;34633;-73
2022/11/25 12:28:46;;;;;;;;;;;;;;;11.10;76.56;100795.12;5588705;31;34937;-72
2022/11/25 12:31:55;;;;;;;;;;;;;;;10.74;78.88;100785.72;5561835;31;34825;-73
2022/11/25 12:35:01;;;;;;;;;;;;;;;10.73;79.16;100784.88;5588543;31;34464;-72
2022/11/25 12:38:14;;;;;;;;;;;;;;;10.71;81.87;100780.72;5588594;31;35167;-72
2022/11/25 12:41:32;;;;;;;;;;;;;;;11.24;77.21;100785.72;5574659;31;34475;-72
2022/11/25 12:44:47;;;;;;;;;;;;;;;11.05;78.56;100783.34;5574232;31;34899;-72
2022/11/25 12:47:50;;;;;;;;;;;;;;;10.83;79.91;100779.44;5588717;31;34423;-72
2022/11/25 12:50:56;;;;;;;;;;;;;;;10.64;81.82;100777.88;5575188;31;34623;-72
2022/11/25 12:54:01;;;;;;;;;;;;;;;10.07;86.04;100773.19;5577021;31;35275;-72
2022/11/25 12:57:23;;;;;;;;;;;;;;;9.80;89.70;100760.88;5590915;31;34676;-72
2022/11/25 13:00:37;;;;;;;;;;;;;;;9.52;91.60;100773.38;5591027;31;34947;-73
2022/11/25 13:03:44;;;;;;;;;;;;;;;9.58;92.60;100768.28;5591006;31;35180;-72
2022/11/25 13:06:47;;;;;;;;;;;;;;;9.52;92.16;100770.75;5590733;31;34547;-72
2022/11/25 13:10:03;;;;;;;;;;;;;;;9.21;95.89;100772.91;5590869;31;34456;-71
2022/11/25 13:13:09;;;;;;;;;;;;;;;9.09;97.76;100772.28;5591281;31;35097;-71
2022/11/25 13:16:20;;;;;;;;;;;;;;;8.99;99.09;100778.63;5590745;31;33630;-71
2022/11/25 13:19:24;;;;;;;;;;;;;;;8.88;100.00;100771.72;5590640;31;34520;-72
2022/11/25 13:22:28;;;;;;;;;;;;;;;8.92;99.09;100769.59;5576848;31;34952;-71
2022/11/25 13:25:31;;;;;;;;;;;;;;;8.70;100.00;100770.81;5576302;31;35390;-71
2022/11/25 13:28:36;;;;;;;;;;;;;;;8.65;100.00;100770.44;5590628;31;34678;-71
2022/11/25 13:31:55;;;;;;;;;;;;;;;8.59;100.00;100768.38;5576608;31;34466;-72
2022/11/25 13:35:21;;;;;;;;;;;;;;;8.42;100.00;100767.31;5576351;31;33135;-71
2022/11/25 13:38:42;;;;;;;;;;;;;;;8.76;99.78;100775.53;5590803;31;35171;-71
2022/11/25 13:41:56;;;;;;;;;;;;;;;8.67;100.00;100771.94;5564065;31;35877;-72
2022/11/25 13:45:00;;;;;;;;;;;;;;;8.60;100.00;100783.25;5590662;31;34622;-71
2022/11/25 13:48:17;;;;;;;;;;;;;;;8.66;100.00;100791.47;5590570;31;34600;-71
2022/11/25 13:51:24;;;;;;;;;;;;;;;8.55;100.00;100798.72;5590528;31;34860;-70
2022/11/25 13:54:48;;;;;;;;;;;;;;;8.36;100.00;100789.03;5577295;31;34506;-71
2022/11/25 13:58:11;;;;;;;;;;;;;;;8.26;100.00;100789.03;5590370;31;35139;-71
2022/11/25 14:01:22;;;;;;;;;;;;;;;8.13;100.00;100798.25;5580578;31;35106;-72
2022/11/25 14:04:38;;;;;;;;;;;;;;;8.04;100.00;100801.72;5590257;31;35167;-72
2022/11/25 14:07:42;;;;;;;;;;;;;;;7.99;100.00;100799.50;5576396;31;33462;-71
2022/11/25 14:11:05;;;;;;;;;;;;;;;7.92;100.00;100801.06;5590272;31;34634;-70
2022/11/25 14:14:13;;;;;;;;;;;;;;;7.89;100.00;100808.44;5562921;31;34738;-72
2022/11/25 14:17:26;;;;;;;;;;;;;;;7.80;100.00;100810.06;5563007;31;34868;-71
2022/11/25 14:20:38;;;;;;;;;;;;;;;7.71;100.00;100822.31;5575642;31;33345;-70
2022/11/25 14:24:02;;;;;;;;;;;;;;;7.64;100.00;100823.03;5576095;31;35230;-71
2022/11/25 14:27:12;;;;;;;;;;;;;;;7.53;100.00;100818.69;5590236;31;35243;-71
2022/11/25 14:30:16;;;;;;;;;;;;;;;7.49;100.00;100824.41;5576224;31;35715;-71
2022/11/25 14:33:42;;;;;;;;;;;;;;;7.42;100.00;100821.44;5576171;31;35299;-71
2022/11/25 14:36:51;;;;;;;;;;;;;;;7.24;100.00;100816.00;5575960;31;34302;-71
2022/11/25 14:40:02;;;;;;;;;;;;;;;7.23;100.00;100818.78;5589739;31;34600;-71
2022/11/25 14:43:19;;;;;;;;;;;;;;;7.17;100.00;100825.44;5589906;31;35103;-71
2022/11/25 14:46:24;;;;;;;;;;;;;;;7.11;100.00;100811.97;5575616;31;34755;-72
2022/11/25 14:49:48;;;;;;;;;;;;;;;7.20;100.00;100819.06;5575945;31;33004;-72
2022/11/25 14:53:13;;;;;;;;;;;;;;;7.37;100.00;100815.75;5575827;31;33370;-71
2022/11/25 14:56:26;;;;;;;;;;;;;;;7.49;100.00;100821.75;5589762;31;34950;-72
2022/11/25 14:59:30;;;;;;;;;;;;;;;7.45;100.00;100826.47;5589366;31;35064;-72
2022/11/25 15:02:36;;;;;;;;;;;;;;;7.47;100.00;100831.59;5562541;31;33930;-71
2022/11/25 15:05:40;;;;;;;;;;;;;;;7.37;100.00;100829.78;5589497;31;35180;-71
2022/11/25 15:08:54;;;;;;;;;;;;;;;7.21;100.00;100820.75;5575652;31;35210;-71
2022/11/25 15:11:58;;;;;;;;;;;;;;;7.10;100.00;100824.31;5589259;31;34921;-71
2022/11/25 15:15:02;;;;;;;;;;;;;;;7.33;100.00;100828.38;5588039;31;34505;-72
2022/11/25 15:18:10;;;;;;;;;;;;;;;7.29;100.00;100834.91;5575613;31;34958;-71
2022/11/25 15:21:18;;;;;;;;;;;;;;;7.30;100.00;100828.69;5574939;31;34570;-72
2022/11/25 15:24:23;;;;;;;;;;;;;;;7.29;100.00;100837.56;5575197;31;34708;-71
2022/11/25 15:27:27;;;;;;;;;;;;;;;7.35;100.00;100838.81;5588669;31;35109;-72
2022/11/25 15:30:33;;;;;;;;;;;;;;;7.10;100.00;100831.38;5587960;31;35639;-71
2022/11/25 15:33:37;;;;;;;;;;;;;;;6.84;100.00;100837.13;5574441;31;33097;-71
2022/11/25 15:36:42;;;;;;;;;;;;;;;6.63;100.00;100843.44;5588792;31;35141;-72
2022/11/25 15:40:09;;;;;;;;;;;;;;;6.45;100.00;100840.53;5588898;31;34437;-71
2022/11/25 15:43:21;;;;;;;;;;;;;;;6.25;100.00;100849.28;5574564;31;35810;-73
2022/11/25 15:46:26;;;;;;;;;;;;;;;6.06;100.00;100840.28;5549303;31;34665;-72
2022/11/25 15:49:34;;;;;;;;;;;;;;;5.91;100.00;100849.44;5588525;31;34661;-72
2022/11/25 15:52:39;;;;;;;;;;;;;;;5.78;100.00;100842.66;5588431;31;34885;-72
2022/11/25 15:55:43;;;;;;;;;;;;;;;5.78;100.00;100847.94;5561459;31;35089;-71
2022/11/25 15:58:49;;;;;;;;;;;;;;;5.73;100.00;100848.31;5575583;31;34516;-72
2022/11/25 16:01:54;;;;;;;;;;;;;;;5.82;100.00;100859.88;5588959;31;34458;-72
2022/11/25 16:05:11;;;;;;;;;;;;;;;5.88;100.00;100859.41;5574174;31;36969;-71
2022/11/25 16:08:17;;;;;;;;;;;;;;;5.81;100.00;100855.59;5588916;31;35225;-71
2022/11/25 16:11:24;;;;;;;;;;;;;;;5.73;100.00;100861.47;5588572;31;34585;-72
2022/11/25 16:14:32;;;;;;;;;;;;;;;5.61;100.00;100859.84;5588924;31;34913;-71
2022/11/25 16:17:37;;;;;;;;;;;;;;;5.54;100.00;100866.53;5588639;31;35065;-71
2022/11/25 16:20:53;;;;;;;;;;;;;;;5.45;100.00;100862.88;5588719;31;34991;-71